Time;durP1;ratioP1;P1;durP2;ratioP2;P2;SDS_P1;SDS_P2;PMS_P1;PMS_P2;Temp;Humidity;BMP_temperature;BMP_pressure;BME280_temperature;BME280_humidity;BME280_pressure;Samples;Min_cycle;Max_cycle;Signal;HPM_P1;HPM_P2
2021/06/07 00:01:09;;;;;;;19.93;16.00;;;15.60;99.90;;;;;;5048623;28;20459;-75
2021/06/07 00:03:35;;;;;;;19.50;15.40;;;15.50;99.90;;;;;;5048628;28;20459;-75
2021/06/07 00:06:02;;;;;;;26.10;17.23;;;15.60;99.90;;;;;;5049013;28;21255;-75
2021/06/07 00:08:30;;;;;;;24.87;16.70;;;15.50;99.90;;;;;;5048705;28;20467;-75
2021/06/07 00:10:56;;;;;;;24.30;18.20;;;15.60;99.90;;;;;;5048123;28;20463;-75
2021/06/07 00:13:24;;;;;;;23.17;17.40;;;15.60;99.90;;;;;;5048526;28;20479;-75
2021/06/07 00:15:52;;;;;;;28.20;18.30;;;15.60;99.90;;;;;;5048272;28;20483;-75
2021/06/07 00:18:19;;;;;;;23.63;18.00;;;15.60;99.90;;;;;;5048428;28;21092;-75
2021/06/07 00:20:48;;;;;;;24.50;18.90;;;15.50;99.90;;;;;;5048138;28;20464;-75
2021/06/07 00:23:16;;;;;;;22.47;17.60;;;15.50;99.90;;;;;;5048271;28;20463;-75
2021/06/07 00:25:43;;;;;;;22.83;18.03;;;15.50;99.90;;;;;;5048033;28;20491;-75
2021/06/07 00:28:10;;;;;;;24.70;18.73;;;15.50;99.90;;;;;;5048006;28;21060;-75
2021/06/07 00:30:37;;;;;;;24.33;17.20;;;15.50;99.90;;;;;;5047807;28;20491;-75
2021/06/07 00:33:03;;;;;;;24.47;18.57;;;15.50;99.90;;;;;;5048048;28;20514;-76
2021/06/07 00:35:31;;;;;;;24.10;18.50;;;15.50;99.90;;;;;;5047557;28;20483;-76
2021/06/07 00:37:58;;;;;;;22.97;17.77;;;15.50;99.90;;;;;;5048476;28;20513;-76
2021/06/07 00:40:26;;;;;;;21.00;16.80;;;15.50;99.90;;;;;;5047830;28;20468;-76
2021/06/07 00:42:55;;;;;;;23.40;17.30;;;15.50;99.90;;;;;;5048174;28;20798;-76
2021/06/07 00:45:26;;;;;;;27.93;18.00;;;15.50;99.90;;;;;;5048088;28;20483;-75
2021/06/07 00:47:53;;;;;;;24.63;18.67;;;15.50;99.90;;;;;;5048311;28;20828;-76
2021/06/07 00:50:27;;;;;;;18.83;16.77;;;15.50;99.90;;;;;;5048239;28;20471;-75
2021/06/07 00:53:03;;;;;;;26.30;18.60;;;15.50;99.90;;;;;;5047593;28;20486;-76
2021/06/07 00:55:36;;;;;;;27.00;18.37;;;15.50;99.90;;;;;;5047962;28;20479;-75
2021/06/07 00:58:05;;;;;;;24.17;17.93;;;15.50;99.90;;;;;;5047877;28;20471;-75
2021/06/07 01:00:32;;;;;;;21.43;17.30;;;15.50;99.90;;;;;;5048036;28;20536;-75
2021/06/07 01:02:59;;;;;;;24.57;17.63;;;15.50;99.90;;;;;;5049302;28;20451;-75
2021/06/07 01:05:27;;;;;;;25.93;18.80;;;15.50;99.90;;;;;;5050205;28;20833;-76
2021/06/07 01:07:54;;;;;;;27.63;17.90;;;15.40;99.90;;;;;;5042983;28;20822;-75
2021/06/07 01:10:22;;;;;;;23.33;18.60;;;15.40;99.90;;;;;;5030290;28;20863;-76
2021/06/07 01:12:49;;;;;;;24.33;18.53;;;15.40;99.90;;;;;;5027946;28;20518;-76
2021/06/07 01:15:17;;;;;;;24.27;17.87;;;15.40;99.90;;;;;;5010880;28;20481;-76
2021/06/07 01:17:44;;;;;;;19.77;16.17;;;15.40;99.90;;;;;;5010637;28;20465;-76
2021/06/07 01:20:14;;;;;;;25.00;17.70;;;15.40;99.90;;;;;;5011181;28;20457;-76
2021/06/07 01:22:42;;;;;;;21.57;15.90;;;15.40;99.90;;;;;;5010748;28;20468;-76
2021/06/07 01:25:11;;;;;;;24.23;16.73;;;15.40;99.90;;;;;;5011815;28;20846;-76
2021/06/07 01:27:38;;;;;;;25.27;17.80;;;15.40;99.90;;;;;;5010657;28;20469;-76
2021/06/07 01:30:08;;;;;;;22.67;16.63;;;15.40;99.90;;;;;;5010649;28;20457;-76
2021/06/07 01:32:35;;;;;;;23.37;16.83;;;15.40;99.90;;;;;;5010473;28;20469;-76
2021/06/07 01:35:02;;;;;;;26.67;18.10;;;15.40;99.90;;;;;;5010469;28;20485;-76
2021/06/07 01:37:28;;;;;;;22.80;17.50;;;15.40;99.90;;;;;;5010636;28;20457;-76
2021/06/07 01:39:55;;;;;;;21.50;15.57;;;15.40;99.90;;;;;;5010590;28;20461;-76
2021/06/07 01:42:22;;;;;;;25.83;17.50;;;15.30;99.90;;;;;;5010513;28;20826;-76
2021/06/07 01:44:48;;;;;;;27.60;17.53;;;15.40;99.90;;;;;;5010691;28;20473;-75
2021/06/07 01:47:14;;;;;;;24.67;16.40;;;15.40;99.90;;;;;;5010304;28;20469;-76
2021/06/07 01:49:41;;;;;;;23.83;17.63;;;15.40;99.90;;;;;;5010628;28;20477;-76
2021/06/07 01:52:08;;;;;;;24.40;17.37;;;15.40;99.90;;;;;;5010077;28;20468;-76
2021/06/07 01:54:35;;;;;;;23.83;18.47;;;15.40;99.90;;;;;;5010315;28;20516;-76
2021/06/07 01:57:03;;;;;;;28.20;19.00;;;15.40;99.90;;;;;;5010579;28;20462;-76
2021/06/07 01:59:29;;;;;;;28.43;19.87;;;15.30;99.90;;;;;;5010090;28;20465;-76
2021/06/07 02:01:55;;;;;;;29.77;19.70;;;15.30;99.90;;;;;;5010256;28;20464;-76
2021/06/07 02:04:22;;;;;;;25.47;17.60;;;15.30;99.90;;;;;;5010183;28;20457;-76
2021/06/07 02:06:48;;;;;;;22.80;18.80;;;15.30;99.90;;;;;;5010362;28;21123;-75
2021/06/07 02:09:14;;;;;;;26.00;18.47;;;15.30;99.90;;;;;;5009970;28;20472;-76
2021/06/07 02:11:41;;;;;;;26.10;18.33;;;15.30;99.90;;;;;;5008864;28;20466;-76
2021/06/07 02:14:09;;;;;;;24.90;18.70;;;15.30;99.90;;;;;;5010562;28;20862;-76
2021/06/07 02:16:38;;;;;;;31.30;20.70;;;15.30;99.90;;;;;;5009967;28;20485;-76
2021/06/07 02:19:07;;;;;;;24.60;17.60;;;15.30;99.90;;;;;;5010433;28;20841;-76
2021/06/07 02:21:35;;;;;;;28.37;19.63;;;15.30;99.90;;;;;;5009986;28;20475;-75
2021/06/07 02:24:04;;;;;;;31.07;19.87;;;15.30;99.90;;;;;;5010020;28;20567;-75
2021/06/07 02:26:30;;;;;;;34.00;19.50;;;15.30;99.90;;;;;;5012052;28;20491;-75
2021/06/07 02:29:01;;;;;;;32.03;20.07;;;15.30;99.90;;;;;;5013894;28;20469;-75
2021/06/07 02:31:30;;;;;;;28.60;19.67;;;15.30;99.90;;;;;;5013565;28;20597;-76
2021/06/07 02:33:58;;;;;;;29.90;20.20;;;15.30;99.90;;;;;;5014040;28;20915;-75
2021/06/07 02:36:28;;;;;;;23.70;17.70;;;15.30;99.90;;;;;;5013385;28;20484;-75
2021/06/07 02:38:55;;;;;;;25.63;17.97;;;15.30;99.90;;;;;;5013951;28;20457;-75
2021/06/07 02:41:22;;;;;;;26.00;18.67;;;15.30;99.90;;;;;;5013148;28;20472;-75
2021/06/07 02:43:49;;;;;;;27.10;19.27;;;15.30;99.90;;;;;;5013772;28;20469;-75
2021/06/07 02:46:16;;;;;;;25.70;17.60;;;15.30;99.90;;;;;;5013831;28;20492;-75
2021/06/07 02:48:44;;;;;;;30.30;19.37;;;15.20;99.90;;;;;;5013290;28;20866;-75
2021/06/07 02:51:10;;;;;;;27.30;18.43;;;15.30;99.90;;;;;;5013470;28;20479;-75
2021/06/07 02:53:37;;;;;;;26.47;18.77;;;15.20;99.90;;;;;;5013037;28;20535;-75
2021/06/07 02:56:04;;;;;;;27.03;18.20;;;15.20;99.90;;;;;;5013505;28;20492;-75
2021/06/07 02:58:30;;;;;;;25.97;17.20;;;15.20;99.90;;;;;;5013387;28;20465;-75
2021/06/07 03:00:59;;;;;;;23.47;16.53;;;15.20;99.90;;;;;;5012752;28;20472;-75
2021/06/07 03:03:26;;;;;;;27.40;18.20;;;15.20;99.90;;;;;;5013350;28;20515;-75
2021/06/07 03:05:55;;;;;;;27.50;18.27;;;15.20;99.90;;;;;;5013281;28;20485;-75
2021/06/07 03:08:23;;;;;;;28.53;18.60;;;15.20;99.90;;;;;;5013078;28;20997;-75
2021/06/07 03:10:51;;;;;;;28.37;17.80;;;15.20;99.90;;;;;;5013068;28;20472;-75
2021/06/07 03:13:18;;;;;;;25.63;17.60;;;15.20;99.90;;;;;;5012824;28;20489;-75
2021/06/07 03:15:44;;;;;;;27.40;18.07;;;15.20;99.90;;;;;;5013106;28;20539;-75
2021/06/07 03:18:11;;;;;;;31.10;19.93;;;15.20;99.90;;;;;;5013051;28;20953;-76
2021/06/07 03:20:39;;;;;;;29.20;19.63;;;15.20;99.90;;;;;;5012597;28;20560;-76
2021/06/07 03:23:09;;;;;;;26.90;19.73;;;15.20;99.90;;;;;;5012895;28;20458;-76
2021/06/07 03:25:36;;;;;;;29.30;18.40;;;15.20;99.90;;;;;;5012343;28;20849;-76
2021/06/07 03:28:04;;;;;;;28.00;18.43;;;15.20;99.90;;;;;;5012574;28;20528;-76
2021/06/07 03:30:30;;;;;;;36.33;19.73;;;15.20;99.90;;;;;;5012603;28;20473;-75
2021/06/07 03:32:57;;;;;;;30.97;19.97;;;15.20;99.90;;;;;;5012080;28;20461;-76
2021/06/07 03:35:24;;;;;;;31.60;20.80;;;15.20;99.90;;;;;;5030026;28;20476;-75
2021/06/07 03:37:51;;;;;;;31.40;21.37;;;15.20;99.90;;;;;;5031917;28;20820;-75
2021/06/07 03:40:22;;;;;;;33.47;21.33;;;15.20;99.90;;;;;;5032441;28;20471;-75
2021/06/07 03:42:48;;;;;;;37.03;20.80;;;15.20;99.90;;;;;;5031821;28;20825;-76
2021/06/07 03:45:16;;;;;;;35.23;22.00;;;15.10;99.90;;;;;;5025102;28;20472;-76
2021/06/07 03:47:43;;;;;;;27.87;18.40;;;15.20;99.90;;;;;;5032279;28;20472;-76
2021/06/07 03:50:11;;;;;;;32.10;20.83;;;15.20;99.90;;;;;;5032124;28;20479;-76
2021/06/07 03:52:38;;;;;;;28.97;20.63;;;15.20;99.90;;;;;;5031069;28;20468;-75
2021/06/07 03:55:06;;;;;;;33.60;21.23;;;15.20;99.90;;;;;;5032125;28;20492;-74
2021/06/07 03:57:34;;;;;;;30.53;19.47;;;15.20;99.90;;;;;;5031654;28;20639;-73
2021/06/07 04:00:01;;;;;;;32.33;20.43;;;15.20;99.90;;;;;;5016476;28;20473;-72
2021/06/07 04:02:27;;;;;;;30.33;19.63;;;15.10;99.90;;;;;;5011614;28;20464;-72
2021/06/07 04:04:53;;;;;;;29.77;19.33;;;15.20;99.90;;;;;;5012233;28;20539;-73
2021/06/07 04:07:20;;;;;;;28.90;19.97;;;15.20;99.90;;;;;;5028094;28;20452;-72
2021/06/07 04:09:47;;;;;;;33.47;19.30;;;15.20;99.90;;;;;;5031622;28;20829;-73
2021/06/07 04:12:14;;;;;;;26.40;19.97;;;15.20;99.90;;;;;;5030666;28;20986;-73
2021/06/07 04:14:41;;;;;;;31.87;20.60;;;15.20;99.90;;;;;;5031314;28;20488;-72
2021/06/07 04:17:08;;;;;;;36.97;21.37;;;15.20;99.90;;;;;;5031849;28;20460;-72
2021/06/07 04:19:34;;;;;;;32.67;20.17;;;15.20;99.90;;;;;;5031187;28;20465;-72
2021/06/07 04:22:00;;;;;;;31.70;20.03;;;15.20;99.90;;;;;;5030547;28;20860;-72
2021/06/07 04:24:27;;;;;;;30.70;20.37;;;15.10;99.90;;;;;;5016330;28;21045;-72
2021/06/07 04:26:53;;;;;;;30.03;19.73;;;15.10;99.90;;;;;;5011851;28;20461;-72
2021/06/07 04:29:20;;;;;;;32.57;21.77;;;15.10;99.90;;;;;;5019506;28;20460;-73
2021/06/07 04:31:47;;;;;;;24.63;18.37;;;15.10;99.90;;;;;;5031648;28;20486;-73
2021/06/07 04:34:14;;;;;;;31.20;19.17;;;15.20;99.90;;;;;;5031370;28;20495;-72
2021/06/07 04:36:40;;;;;;;30.63;20.20;;;15.20;99.90;;;;;;5031185;28;20495;-72
2021/06/07 04:39:07;;;;;;;28.00;19.53;;;15.20;99.90;;;;;;5031389;28;20494;-72
2021/06/07 04:41:33;;;;;;;29.90;19.70;;;15.20;99.90;;;;;;5030635;28;20990;-72
2021/06/07 04:44:00;;;;;;;30.40;20.07;;;15.30;99.90;;;;;;5031302;28;20456;-72
2021/06/07 04:46:27;;;;;;;30.73;19.27;;;15.20;99.90;;;;;;5030791;28;20571;-72
2021/06/07 04:48:55;;;;;;;27.80;19.13;;;15.20;99.90;;;;;;5030419;28;20467;-72
2021/06/07 04:51:21;;;;;;;32.33;19.67;;;15.20;99.90;;;;;;5030878;28;20872;-72
2021/06/07 04:53:47;;;;;;;29.77;20.90;;;15.20;99.90;;;;;;5030432;28;20999;-72
2021/06/07 04:56:13;;;;;;;24.43;17.60;;;15.20;99.90;;;;;;5031137;28;20487;-72
2021/06/07 04:58:40;;;;;;;30.17;20.60;;;15.20;99.90;;;;;;5030752;28;20460;-73
2021/06/07 05:01:08;;;;;;;26.90;19.63;;;15.20;99.90;;;;;;5030499;28;20956;-72
2021/06/07 05:03:34;;;;;;;30.87;19.90;;;15.20;99.90;;;;;;5030758;28;21011;-72
2021/06/07 05:06:04;;;;;;;27.27;19.50;;;15.20;99.90;;;;;;5030572;28;20480;-72
2021/06/07 05:08:31;;;;;;;28.30;19.73;;;15.20;99.90;;;;;;5030637;28;20845;-72
2021/06/07 05:10:58;;;;;;;30.97;20.27;;;15.20;99.90;;;;;;5030648;28;20460;-72
2021/06/07 05:13:24;;;;;;;28.60;18.57;;;15.20;99.90;;;;;;5030458;28;20479;-72
2021/06/07 05:15:51;;;;;;;26.13;17.13;;;15.20;99.90;;;;;;5030957;28;20964;-72
2021/06/07 05:18:17;;;;;;;24.37;17.77;;;15.20;99.90;;;;;;5030448;28;21000;-72
2021/06/07 05:20:44;;;;;;;30.63;16.47;;;15.20;99.90;;;;;;5030404;28;20479;-72
2021/06/07 05:23:12;;;;;;;25.70;17.47;;;15.20;99.90;;;;;;5030734;28;20469;-72
2021/06/07 05:25:39;;;;;;;24.07;17.47;;;15.20;99.90;;;;;;5029943;28;20488;-72
2021/06/07 05:28:08;;;;;;;23.80;17.40;;;15.20;99.90;;;;;;5030727;28;20460;-72
2021/06/07 05:30:36;;;;;;;20.23;14.43;;;15.30;99.90;;;;;;5029978;28;20467;-72
2021/06/07 05:33:02;;;;;;;20.47;15.20;;;15.30;99.90;;;;;;5030542;28;20832;-72
2021/06/07 05:35:31;;;;;;;18.60;14.70;;;15.30;99.90;;;;;;5030291;28;20542;-72
2021/06/07 05:37:57;;;;;;;17.67;13.50;;;15.30;99.90;;;;;;5030185;28;20456;-72
2021/06/07 05:40:27;;;;;;;20.23;14.67;;;15.30;99.90;;;;;;5030354;28;20491;-72
2021/06/07 05:42:54;;;;;;;19.20;13.53;;;15.30;99.90;;;;;;5029875;28;20460;-72
2021/06/07 05:45:20;;;;;;;19.37;14.50;;;15.20;99.90;;;;;;5030342;28;20481;-72
2021/06/07 05:47:48;;;;;;;21.63;15.77;;;15.30;99.90;;;;;;5030507;28;20845;-72
2021/06/07 05:50:17;;;;;;;23.17;13.03;;;15.20;99.90;;;;;;5030181;28;20460;-72
2021/06/07 05:52:47;;;;;;;16.50;12.87;;;15.20;99.90;;;;;;5029920;28;20465;-72
2021/06/07 05:55:15;;;;;;;17.50;12.47;;;15.20;99.90;;;;;;5030099;28;20492;-72
2021/06/07 05:57:43;;;;;;;18.53;12.67;;;15.20;99.90;;;;;;5030418;28;20494;-73
2021/06/07 06:00:11;;;;;;;18.70;13.03;;;15.20;99.90;;;;;;5031955;28;20492;-73
2021/06/07 06:02:37;;;;;;;15.90;12.30;;;15.10;99.90;;;;;;5033597;28;20456;-72
2021/06/07 06:05:05;;;;;;;16.60;13.10;;;15.10;99.90;;;;;;5034154;28;20479;-72
2021/06/07 06:07:32;;;;;;;18.53;12.90;;;15.20;99.90;;;;;;5033614;28;20971;-72
2021/06/07 06:09:58;;;;;;;18.10;13.70;;;15.20;99.90;;;;;;5034325;28;20460;-72
2021/06/07 06:12:25;;;;;;;17.30;12.60;;;15.20;99.90;;;;;;5033816;28;21132;-72
2021/06/07 06:14:52;;;;;;;22.17;14.13;;;15.20;99.90;;;;;;5033641;28;20564;-72
2021/06/07 06:17:18;;;;;;;18.53;13.17;;;15.20;99.90;;;;;;5034162;28;20988;-72
2021/06/07 06:19:45;;;;;;;17.60;13.97;;;15.20;99.90;;;;;;5033546;28;20491;-72
2021/06/07 06:22:11;;;;;;;18.33;13.53;;;15.30;99.90;;;;;;5033665;28;20471;-72
2021/06/07 06:24:37;;;;;;;17.87;12.50;;;15.30;99.90;;;;;;5033575;28;20568;-72
2021/06/07 06:27:04;;;;;;;18.27;13.10;;;15.30;99.90;;;;;;5033880;28;20471;-72
2021/06/07 06:29:31;;;;;;;16.87;12.67;;;15.40;99.90;;;;;;5033813;28;20456;-72
2021/06/07 06:31:58;;;;;;;19.90;14.03;;;15.40;99.90;;;;;;5033017;28;20474;-72
2021/06/07 06:34:25;;;;;;;18.90;12.70;;;15.40;99.90;;;;;;5033357;28;20488;-73
2021/06/07 06:36:51;;;;;;;17.30;13.03;;;15.40;99.90;;;;;;5033528;28;20517;-74
2021/06/07 06:39:17;;;;;;;17.23;13.70;;;15.40;99.90;;;;;;5033321;28;20460;-74
2021/06/07 06:41:43;;;;;;;13.83;11.90;;;15.40;99.90;;;;;;5033142;28;20475;-74
2021/06/07 06:44:10;;;;;;;17.70;12.10;;;15.40;99.90;;;;;;5033205;28;20838;-73
2021/06/07 06:46:36;;;;;;;17.70;12.83;;;15.40;99.90;;;;;;5033144;28;20488;-74
2021/06/07 06:49:04;;;;;;;18.80;13.33;;;15.40;99.90;;;;;;5033542;28;20460;-74
2021/06/07 06:51:30;;;;;;;19.47;13.83;;;15.40;99.90;;;;;;5032461;28;20842;-73
2021/06/07 06:53:57;;;;;;;16.07;13.00;;;15.40;99.90;;;;;;5033299;28;20897;-73
2021/06/07 06:56:23;;;;;;;17.30;12.27;;;15.40;99.90;;;;;;5032701;28;20487;-74
2021/06/07 06:58:50;;;;;;;21.40;14.37;;;15.40;99.90;;;;;;5033518;28;20963;-74
2021/06/07 07:01:17;;;;;;;20.50;14.97;;;15.40;99.90;;;;;;5033158;28;20460;-73
2021/06/07 07:03:44;;;;;;;19.37;13.10;;;15.40;99.90;;;;;;5032768;28;20452;-74
2021/06/07 07:06:11;;;;;;;19.27;13.00;;;15.40;99.90;;;;;;5032454;28;20492;-73
2021/06/07 07:08:38;;;;;;;16.40;11.80;;;15.50;99.90;;;;;;5032520;28;20475;-73
2021/06/07 07:11:04;;;;;;;21.20;14.20;;;15.40;99.90;;;;;;5032445;28;20467;-73
2021/06/07 07:13:31;;;;;;;18.47;13.60;;;15.40;99.90;;;;;;5032703;28;20456;-73
2021/06/07 07:15:57;;;;;;;16.70;13.57;;;15.40;99.90;;;;;;5032632;28;20480;-73
2021/06/07 07:18:23;;;;;;;17.67;13.90;;;15.50;99.90;;;;;;5032954;28;20516;-73
2021/06/07 07:20:50;;;;;;;21.60;13.37;;;15.50;99.90;;;;;;5031947;28;20468;-73
2021/06/07 07:23:17;;;;;;;22.03;14.50;;;15.50;99.90;;;;;;5032954;28;20460;-73
2021/06/07 07:25:47;;;;;;;17.67;13.37;;;15.50;99.90;;;;;;5032567;28;20495;-73
2021/06/07 07:28:13;;;;;;;17.97;13.73;;;15.50;99.90;;;;;;5032527;28;20526;-73
2021/06/07 07:30:39;;;;;;;18.33;12.63;;;15.60;99.90;;;;;;5032688;28;20465;-73
2021/06/07 07:33:06;;;;;;;19.60;13.33;;;15.60;99.90;;;;;;5032234;28;20460;-73
2021/06/07 07:35:34;;;;;;;18.57;13.20;;;15.60;99.90;;;;;;5032541;28;20500;-73
2021/06/07 07:38:00;;;;;;;16.27;12.90;;;15.60;99.90;;;;;;5032928;28;20543;-73
2021/06/07 07:40:28;;;;;;;17.40;12.13;;;15.60;99.90;;;;;;5032795;28;20470;-73
2021/06/07 07:42:56;;;;;;;15.30;11.90;;;15.70;99.90;;;;;;5032789;28;20461;-72
2021/06/07 07:45:26;;;;;;;17.37;12.67;;;15.60;99.90;;;;;;5032591;28;20907;-73
2021/06/07 07:47:53;;;;;;;16.67;12.67;;;15.70;99.90;;;;;;5032751;28;20521;-73
2021/06/07 07:50:20;;;;;;;13.73;11.03;;;15.70;99.90;;;;;;5032440;28;20470;-73
2021/06/07 07:52:47;;;;;;;14.40;11.87;;;15.70;99.90;;;;;;5031754;28;20460;-72
2021/06/07 07:55:15;;;;;;;13.50;10.30;;;15.70;99.90;;;;;;5032383;28;20496;-72
2021/06/07 07:57:43;;;;;;;11.30;9.80;;;15.70;99.90;;;;;;5031807;28;20456;-72
2021/06/07 08:00:11;;;;;;;11.13;9.60;;;15.70;99.90;;;;;;5032374;28;20952;-72
2021/06/07 08:02:38;;;;;;;12.70;10.23;;;15.70;99.90;;;;;;5031701;28;20474;-72
2021/06/07 08:05:05;;;;;;;12.30;10.33;;;15.70;99.90;;;;;;5032044;28;20472;-72
2021/06/07 08:07:31;;;;;;;11.93;9.73;;;15.70;99.90;;;;;;5032110;28;20471;-72
2021/06/07 08:09:57;;;;;;;13.10;9.90;;;15.70;99.90;;;;;;5031636;28;20510;-72
2021/06/07 08:12:24;;;;;;;11.70;8.10;;;15.70;99.90;;;;;;5031760;28;20464;-72
2021/06/07 08:14:51;;;;;;;9.80;8.80;;;15.70;99.90;;;;;;5031247;28;20488;-72
2021/06/07 08:17:17;;;;;;;11.67;9.33;;;15.80;99.90;;;;;;5030054;28;20468;-72
2021/06/07 08:19:44;;;;;;;10.50;8.90;;;15.80;99.90;;;;;;5031585;28;20475;-72
2021/06/07 08:22:11;;;;;;;10.83;8.63;;;15.80;99.90;;;;;;5030696;28;20952;-72
2021/06/07 08:24:38;;;;;;;11.10;9.37;;;15.80;99.90;;;;;;5030480;28;20518;-71
2021/06/07 08:27:06;;;;;;;12.53;9.30;;;15.80;99.90;;;;;;5031186;28;20457;-71
2021/06/07 08:29:32;;;;;;;11.47;9.10;;;15.80;99.90;;;;;;5031772;28;20526;-71
2021/06/07 08:32:00;;;;;;;13.00;10.07;;;15.80;99.90;;;;;;5031271;28;20460;-71
2021/06/07 08:34:26;;;;;;;12.10;9.53;;;15.80;99.90;;;;;;5030893;28;21030;-71
2021/06/07 08:36:53;;;;;;;11.10;9.13;;;15.80;99.90;;;;;;5031529;28;20467;-71
2021/06/07 08:39:20;;;;;;;12.00;8.87;;;15.80;99.90;;;;;;5030811;28;20982;-71
2021/06/07 08:41:46;;;;;;;11.53;8.83;;;15.90;99.90;;;;;;5031105;28;20464;-72
2021/06/07 08:44:13;;;;;;;10.80;8.77;;;15.90;99.90;;;;;;5031121;28;20466;-72
2021/06/07 08:46:39;;;;;;;11.00;9.20;;;15.90;99.90;;;;;;5031071;28;20539;-72
2021/06/07 08:49:07;;;;;;;11.63;9.40;;;15.90;99.90;;;;;;5031080;28;20477;-71
2021/06/07 08:51:33;;;;;;;10.70;8.97;;;15.90;99.90;;;;;;5030816;28;20464;-72
2021/06/07 08:54:00;;;;;;;10.40;9.30;;;15.90;99.90;;;;;;5031058;28;20507;-72
2021/06/07 08:56:26;;;;;;;9.50;8.50;;;15.90;99.90;;;;;;5030685;28;20572;-72
2021/06/07 08:58:52;;;;;;;7.80;7.00;;;16.00;99.90;;;;;;5031180;28;20522;-72
2021/06/07 09:01:18;;;;;;;10.10;9.10;;;16.00;99.90;;;;;;5030794;28;20464;-72
2021/06/07 09:03:45;;;;;;;9.63;7.33;;;16.00;99.90;;;;;;5030768;28;20467;-72
2021/06/07 09:06:13;;;;;;;9.00;7.73;;;16.10;99.90;;;;;;5031495;28;20488;-72
2021/06/07 09:08:41;;;;;;;9.17;7.27;;;16.20;99.90;;;;;;5030801;28;20971;-72
2021/06/07 09:11:10;;;;;;;7.47;6.70;;;16.30;99.90;;;;;;5030606;28;21209;-71
2021/06/07 09:13:37;;;;;;;6.33;5.70;;;16.40;99.90;;;;;;5031216;28;20456;-72
2021/06/07 09:16:05;;;;;;;7.43;6.50;;;16.50;99.90;;;;;;5030476;28;20502;-72
2021/06/07 09:18:33;;;;;;;6.87;6.13;;;16.50;99.90;;;;;;5031026;28;20820;-71
2021/06/07 09:21:04;;;;;;;6.97;6.27;;;16.50;99.90;;;;;;5030255;28;20504;-72
2021/06/07 09:23:44;;;;;;;7.10;6.40;;;16.50;99.90;;;;;;5031009;28;20461;-71
2021/06/07 09:26:25;;;;;;;6.73;6.10;;;16.40;99.90;;;;;;5030120;28;20503;-71
2021/06/07 09:28:54;;;;;;;7.63;6.60;;;16.40;99.90;;;;;;5030864;28;20464;-71
2021/06/07 09:31:28;;;;;;;9.00;7.13;;;16.50;99.90;;;;;;5030619;28;20461;-72
2021/06/07 09:33:54;;;;;;;8.83;6.37;;;16.40;99.90;;;;;;5030396;28;20460;-72
2021/06/07 09:36:25;;;;;;;7.30;6.60;;;16.40;99.90;;;;;;5030392;28;20574;-71
2021/06/07 09:39:12;;;;;;;9.53;7.70;;;16.50;99.90;;;;;;5030595;28;20471;-71
2021/06/07 09:41:49;;;;;;;10.23;7.30;;;16.50;99.90;;;;;;5030620;28;20460;-72
2021/06/07 09:44:23;;;;;;;9.90;8.07;;;16.50;99.90;;;;;;5030243;28;20478;-72
2021/06/07 09:46:51;;;;;;;9.60;7.77;;;16.50;99.90;;;;;;5030587;28;20456;-72
2021/06/07 09:49:20;;;;;;;9.30;7.60;;;16.50;99.90;;;;;;5030360;28;20456;-72
2021/06/07 09:51:55;;;;;;;11.00;9.67;;;16.50;99.90;;;;;;5030252;28;20479;-72
2021/06/07 09:54:23;;;;;;;11.30;9.50;;;16.50;99.90;;;;;;5030156;28;20480;-72
2021/06/07 09:56:52;;;;;;;12.17;9.83;;;16.50;99.90;;;;;;5030175;28;20469;-72
2021/06/07 09:59:26;;;;;;;13.80;10.87;;;16.50;99.90;;;;;;5030261;28;20522;-71
2021/06/07 10:01:55;;;;;;;12.97;9.53;;;16.50;99.90;;;;;;5029532;28;20457;-72
2021/06/07 10:04:21;;;;;;;11.13;9.47;;;16.60;99.90;;;;;;5030394;28;20946;-72
2021/06/07 10:06:48;;;;;;;10.80;9.30;;;16.60;99.90;;;;;;5030266;28;20487;-71
2021/06/07 10:09:18;;;;;;;13.83;11.17;;;16.70;99.90;;;;;;5029938;28;20479;-72
2021/06/07 10:11:46;;;;;;;11.87;9.93;;;16.70;99.90;;;;;;5030158;28;20839;-72
2021/06/07 10:14:15;;;;;;;14.07;11.00;;;16.60;99.90;;;;;;5029600;28;20480;-72
2021/06/07 10:16:56;;;;;;;13.90;10.43;;;16.60;99.90;;;;;;5030313;28;21007;-72
2021/06/07 10:19:31;;;;;;;14.60;11.10;;;16.60;99.90;;;;;;5029999;28;20464;-72
2021/06/07 10:21:58;;;;;;;12.23;10.90;;;16.70;99.90;;;;;;5030004;28;20456;-72
2021/06/07 10:24:25;;;;;;;12.93;9.30;;;16.80;99.90;;;;;;5030266;28;20488;-72
2021/06/07 10:26:52;;;;;;;12.83;10.90;;;16.80;99.90;;;;;;5029945;28;21018;-71
2021/06/07 10:29:19;;;;;;;13.50;11.73;;;16.90;99.90;;;;;;5030363;28;20886;-72
2021/06/07 10:31:46;;;;;;;12.73;10.67;;;16.90;99.90;;;;;;5029474;28;20464;-72
2021/06/07 10:34:13;;;;;;;12.90;10.50;;;16.90;99.90;;;;;;5030123;28;20488;-72
2021/06/07 10:36:42;;;;;;;14.77;11.63;;;16.90;99.90;;;;;;5029883;28;20518;-72
2021/06/07 10:39:27;;;;;;;12.50;10.77;;;16.90;99.90;;;;;;5030101;28;20955;-72
2021/06/07 10:42:17;;;;;;;16.60;12.60;;;17.00;99.90;;;;;;5029913;28;20464;-72
2021/06/07 10:44:45;;;;;;;13.07;10.80;;;17.00;99.90;;;;;;5030440;28;20480;-72
2021/06/07 10:47:14;;;;;;;13.93;11.60;;;17.00;99.90;;;;;;5031381;28;20468;-72
2021/06/07 10:49:42;;;;;;;16.93;13.33;;;17.00;99.90;;;;;;5033358;28;20503;-72
2021/06/07 10:52:11;;;;;;;16.20;12.83;;;17.00;99.90;;;;;;5033123;28;20514;-72
2021/06/07 10:54:39;;;;;;;16.37;12.60;;;16.90;99.90;;;;;;5033040;28;20527;-73
2021/06/07 10:57:30;;;;;;;15.40;13.17;;;16.90;99.90;;;;;;5033542;28;20563;-72
2021/06/07 10:59:57;;;;;;;14.10;11.10;;;17.00;99.90;;;;;;5033283;28;20521;-72
2021/06/07 11:02:26;;;;;;;14.10;12.70;;;17.00;99.90;;;;;;5032566;28;20461;-72
2021/06/07 11:05:01;;;;;;;14.20;11.93;;;17.00;99.90;;;;;;5033396;28;20484;-72
2021/06/07 11:07:28;;;;;;;14.07;12.20;;;17.00;99.90;;;;;;5032774;28;20514;-72
2021/06/07 11:10:21;;;;;;;13.80;11.90;;;16.90;99.90;;;;;;5033330;28;20464;-72
2021/06/07 11:12:50;;;;;;;12.50;11.10;;;17.00;99.90;;;;;;5032503;28;20468;-72
2021/06/07 11:15:20;;;;;;;13.90;11.77;;;16.90;99.90;;;;;;5032840;28;20496;-72
2021/06/07 11:17:47;;;;;;;14.30;12.20;;;17.00;99.90;;;;;;5032933;28;20456;-72
2021/06/07 11:20:14;;;;;;;14.07;12.57;;;17.00;99.90;;;;;;5032743;28;20464;-72
2021/06/07 11:23:09;;;;;;;13.07;11.20;;;16.90;99.90;;;;;;5032678;28;20471;-72
2021/06/07 11:25:46;;;;;;;12.23;10.53;;;17.00;99.90;;;;;;5032520;28;20858;-74
2021/06/07 11:28:41;;;;;;;13.00;10.93;;;17.00;99.90;;;;;;5032758;28;20472;-73
2021/06/07 11:31:52;;;;;;;12.43;10.63;;;17.00;99.90;;;;;;5004611;28;20470;-74
2021/06/07 11:34:48;;;;;;;14.33;11.50;;;17.00;99.90;;;;;;5008530;28;20976;-72
2021/06/07 11:37:17;;;;;;;14.30;11.17;;;17.00;99.90;;;;;;5011966;28;20607;-74
2021/06/07 11:39:49;;;;;;;16.90;10.97;;;17.10;99.90;;;;;;5029189;28;20467;-74
2021/06/07 11:42:17;;;;;;;13.53;10.80;;;17.10;99.90;;;;;;5028753;28;20841;-73
2021/06/07 11:44:51;;;;;;;12.60;11.30;;;17.20;99.90;;;;;;5029152;28;20473;-73
2021/06/07 11:47:20;;;;;;;14.20;11.13;;;17.20;99.90;;;;;;5029201;28;20455;-74
2021/06/07 11:50:10;;;;;;;13.50;11.50;;;17.30;99.90;;;;;;5029368;28;21053;-73
2021/06/07 11:52:48;;;;;;;12.30;11.00;;;17.30;99.90;;;;;;5028985;28;20464;-73
2021/06/07 11:55:18;;;;;;;13.53;12.10;;;17.40;99.90;;;;;;5029086;28;20492;-74
2021/06/07 11:57:45;;;;;;;12.90;10.73;;;17.40;99.90;;;;;;5028748;28;20534;-74
2021/06/07 12:00:14;;;;;;;12.43;10.87;;;17.40;99.90;;;;;;5028814;28;20468;-74
2021/06/07 12:02:40;;;;;;;11.70;9.87;;;17.40;99.90;;;;;;5028429;28;20542;-73
2021/06/07 12:05:08;;;;;;;12.57;11.23;;;17.50;99.90;;;;;;5029144;28;20480;-74
2021/06/07 12:07:35;;;;;;;11.80;10.03;;;17.50;99.90;;;;;;5029033;28;20460;-73
2021/06/07 12:10:02;;;;;;;13.60;11.50;;;17.50;99.90;;;;;;5028921;28;20464;-74
2021/06/07 12:12:29;;;;;;;15.00;12.00;;;17.60;99.90;;;;;;5028334;28;20568;-73
2021/06/07 12:14:56;;;;;;;13.90;11.27;;;17.60;99.90;;;;;;5028538;28;20857;-73
2021/06/07 12:17:25;;;;;;;13.67;11.83;;;17.70;99.90;;;;;;5028341;28;20463;-73
2021/06/07 12:19:55;;;;;;;13.37;11.57;;;17.70;99.90;;;;;;5028717;28;20491;-73
2021/06/07 12:22:27;;;;;;;11.43;10.20;;;17.70;99.90;;;;;;5028514;28;21010;-73
2021/06/07 12:24:56;;;;;;;12.73;11.30;;;17.70;99.90;;;;;;5028126;28;20495;-73
2021/06/07 12:30:16;;;;;;;13.40;10.90;;;17.80;99.90;;;;;;5028252;28;20452;-73
2021/06/07 12:32:44;;;;;;;25.70;13.47;;;17.80;99.90;;;;;;5027840;28;20468;-72
2021/06/07 12:35:13;;;;;;;13.03;11.63;;;17.80;99.90;;;;;;5028426;28;20840;-73
2021/06/07 12:37:45;;;;;;;13.90;12.10;;;17.80;99.90;;;;;;5029202;28;20492;-72